sensor_id;sensor_type;location;lat;lon;timestamp;temperature;humidity
28767;DHT22;15921;52.034;20.650;2022-11-23T00:01:19;2.10;99.90
28767;DHT22;15921;52.034;20.650;2022-11-23T00:03:47;2.10;99.90
28767;DHT22;15921;52.034;20.650;2022-11-23T00:06:13;2.10;99.90
28767;DHT22;15921;52.034;20.650;2022-11-23T00:08:39;2.10;99.90
28767;DHT22;15921;52.034;20.650;2022-11-23T00:11:05;2.10;99.90
28767;DHT22;15921;52.034;20.650;2022-11-23T00:13:31;2.10;99.90
28767;DHT22;15921;52.034;20.650;2022-11-23T00:15:56;2.10;99.90
28767;DHT22;15921;52.034;20.650;2022-11-23T00:18:22;2.10;99.90
28767;DHT22;15921;52.034;20.650;2022-11-23T00:20:48;2.10;99.90
28767;DHT22;15921;52.034;20.650;2022-11-23T00:23:13;2.00;99.90
28767;DHT22;15921;52.034;20.650;2022-11-23T00:25:39;2.00;99.90
28767;DHT22;15921;52.034;20.650;2022-11-23T00:28:04;2.00;99.90
28767;DHT22;15921;52.034;20.650;2022-11-23T00:30:30;2.00;99.90
28767;DHT22;15921;52.034;20.650;2022-11-23T00:32:56;2.00;99.90
28767;DHT22;15921;52.034;20.650;2022-11-23T00:35:22;2.00;99.90
28767;DHT22;15921;52.034;20.650;2022-11-23T00:37:48;2.10;99.90
28767;DHT22;15921;52.034;20.650;2022-11-23T00:40:14;2.10;99.90
28767;DHT22;15921;52.034;20.650;2022-11-23T00:42:40;2.00;99.90
28767;DHT22;15921;52.034;20.650;2022-11-23T00:45:06;2.00;99.90
28767;DHT22;15921;52.034;20.650;2022-11-23T00:47:31;2.00;99.90
28767;DHT22;15921;52.034;20.650;2022-11-23T00:49:57;2.00;99.90
28767;DHT22;15921;52.034;20.650;2022-11-23T00:52:23;2.10;99.90
28767;DHT22;15921;52.034;20.650;2022-11-23T00:54:48;2.10;99.90
28767;DHT22;15921;52.034;20.650;2022-11-23T00:57:14;2.10;99.90
28767;DHT22;15921;52.034;20.650;2022-11-23T00:59:39;2.10;99.90
28767;DHT22;15921;52.034;20.650;2022-11-23T01:02:05;2.00;99.90
28767;DHT22;15921;52.034;20.650;2022-11-23T01:04:31;2.10;99.90
28767;DHT22;15921;52.034;20.650;2022-11-23T01:06:56;2.00;99.90
28767;DHT22;15921;52.034;20.650;2022-11-23T01:09:22;1.90;99.90
28767;DHT22;15921;52.034;20.650;2022-11-23T01:11:51;1.90;99.90
28767;DHT22;15921;52.034;20.650;2022-11-23T01:14:17;1.90;99.90
28767;DHT22;15921;52.034;20.650;2022-11-23T01:16:43;1.90;99.90
28767;DHT22;15921;52.034;20.650;2022-11-23T01:19:14;2.00;99.90
28767;DHT22;15921;52.034;20.650;2022-11-23T01:21:41;2.00;99.90
28767;DHT22;15921;52.034;20.650;2022-11-23T01:24:12;2.00;99.90
28767;DHT22;15921;52.034;20.650;2022-11-23T01:26:38;2.00;99.90
28767;DHT22;15921;52.034;20.650;2022-11-23T01:29:04;2.00;99.90
28767;DHT22;15921;52.034;20.650;2022-11-23T01:31:30;2.10;99.90
28767;DHT22;15921;52.034;20.650;2022-11-23T01:33:57;2.10;99.90
28767;DHT22;15921;52.034;20.650;2022-11-23T01:36:26;2.10;99.90
28767;DHT22;15921;52.034;20.650;2022-11-23T01:38:52;2.10;99.90
28767;DHT22;15921;52.034;20.650;2022-11-23T01:41:23;2.10;99.90
28767;DHT22;15921;52.034;20.650;2022-11-23T01:43:50;2.10;99.90
28767;DHT22;15921;52.034;20.650;2022-11-23T01:46:16;2.10;99.90
28767;DHT22;15921;52.034;20.650;2022-11-23T01:48:59;2.10;99.90
28767;DHT22;15921;52.034;20.650;2022-11-23T01:51:30;2.00;99.90
28767;DHT22;15921;52.034;20.650;2022-11-23T01:54:06;2.10;99.90
28767;DHT22;15921;52.034;20.650;2022-11-23T01:56:35;2.10;99.90
28767;DHT22;15921;52.034;20.650;2022-11-23T01:59:03;2.10;99.90
28767;DHT22;15921;52.034;20.650;2022-11-23T02:01:32;2.20;99.90
28767;DHT22;15921;52.034;20.650;2022-11-23T02:04:00;2.20;99.90
28767;DHT22;15921;52.034;20.650;2022-11-23T02:06:27;2.10;99.90
28767;DHT22;15921;52.034;20.650;2022-11-23T02:08:54;2.20;99.90
28767;DHT22;15921;52.034;20.650;2022-11-23T02:11:20;2.10;99.90
28767;DHT22;15921;52.034;20.650;2022-11-23T02:13:47;2.10;99.90
28767;DHT22;15921;52.034;20.650;2022-11-23T02:16:15;2.10;99.90
28767;DHT22;15921;52.034;20.650;2022-11-23T02:18:43;2.20;99.90
28767;DHT22;15921;52.034;20.650;2022-11-23T02:21:10;2.20;99.90
28767;DHT22;15921;52.034;20.650;2022-11-23T02:26:27;2.20;99.90
28767;DHT22;15921;52.034;20.650;2022-11-23T02:29:18;2.20;99.90
28767;DHT22;15921;52.034;20.650;2022-11-23T02:31:46;2.20;99.90
28767;DHT22;15921;52.034;20.650;2022-11-23T02:34:11;2.20;99.90
28767;DHT22;15921;52.034;20.650;2022-11-23T02:36:43;2.20;99.90
28767;DHT22;15921;52.034;20.650;2022-11-23T02:39:16;2.20;99.90
28767;DHT22;15921;52.034;20.650;2022-11-23T02:41:45;2.20;99.90
28767;DHT22;15921;52.034;20.650;2022-11-23T02:46:56;2.20;99.90
28767;DHT22;15921;52.034;20.650;2022-11-23T02:49:23;2.20;99.90
28767;DHT22;15921;52.034;20.650;2022-11-23T02:51:48;2.20;99.90
28767;DHT22;15921;52.034;20.650;2022-11-23T02:54:14;2.20;99.90
28767;DHT22;15921;52.034;20.650;2022-11-23T02:56:39;2.20;99.90
28767;DHT22;15921;52.034;20.650;2022-11-23T02:59:06;2.30;99.90
28767;DHT22;15921;52.034;20.650;2022-11-23T03:01:32;2.30;99.90
28767;DHT22;15921;52.034;20.650;2022-11-23T03:03:57;2.40;99.90
28767;DHT22;15921;52.034;20.650;2022-11-23T03:06:23;2.40;99.90
28767;DHT22;15921;52.034;20.650;2022-11-23T03:08:48;2.40;99.90
28767;DHT22;15921;52.034;20.650;2022-11-23T03:11:14;2.30;99.90
28767;DHT22;15921;52.034;20.650;2022-11-23T03:13:40;2.30;99.90
28767;DHT22;15921;52.034;20.650;2022-11-23T03:16:05;2.30;99.90
28767;DHT22;15921;52.034;20.650;2022-11-23T03:18:31;2.30;99.90
28767;DHT22;15921;52.034;20.650;2022-11-23T03:21:04;2.30;99.90
28767;DHT22;15921;52.034;20.650;2022-11-23T03:23:30;2.20;99.90
28767;DHT22;15921;52.034;20.650;2022-11-23T03:25:58;2.20;99.90
28767;DHT22;15921;52.034;20.650;2022-11-23T03:28:24;2.30;99.90
28767;DHT22;15921;52.034;20.650;2022-11-23T03:30:50;2.30;99.90
28767;DHT22;15921;52.034;20.650;2022-11-23T03:33:16;2.30;99.90
28767;DHT22;15921;52.034;20.650;2022-11-23T03:35:42;2.30;99.90
28767;DHT22;15921;52.034;20.650;2022-11-23T03:38:07;2.30;99.90
28767;DHT22;15921;52.034;20.650;2022-11-23T03:40:33;2.30;99.90
28767;DHT22;15921;52.034;20.650;2022-11-23T03:42:59;2.40;99.90
28767;DHT22;15921;52.034;20.650;2022-11-23T03:45:24;2.40;99.90
28767;DHT22;15921;52.034;20.650;2022-11-23T03:47:50;2.30;99.90
28767;DHT22;15921;52.034;20.650;2022-11-23T03:50:15;2.30;99.90
28767;DHT22;15921;52.034;20.650;2022-11-23T03:52:41;2.30;99.90
28767;DHT22;15921;52.034;20.650;2022-11-23T03:55:07;2.30;99.90
28767;DHT22;15921;52.034;20.650;2022-11-23T03:57:32;2.30;99.90
28767;DHT22;15921;52.034;20.650;2022-11-23T03:59:58;2.30;99.90
28767;DHT22;15921;52.034;20.650;2022-11-23T04:02:24;2.30;99.90
28767;DHT22;15921;52.034;20.650;2022-11-23T04:04:49;2.30;99.90
28767;DHT22;15921;52.034;20.650;2022-11-23T04:07:15;2.30;99.90
28767;DHT22;15921;52.034;20.650;2022-11-23T04:09:40;2.30;99.90
28767;DHT22;15921;52.034;20.650;2022-11-23T04:12:07;2.30;99.90
28767;DHT22;15921;52.034;20.650;2022-11-23T04:14:33;2.30;99.90
28767;DHT22;15921;52.034;20.650;2022-11-23T04:16:59;2.30;99.90
28767;DHT22;15921;52.034;20.650;2022-11-23T04:19:26;2.30;99.90
28767;DHT22;15921;52.034;20.650;2022-11-23T04:21:52;2.40;99.90
28767;DHT22;15921;52.034;20.650;2022-11-23T04:24:17;2.30;99.90
28767;DHT22;15921;52.034;20.650;2022-11-23T04:26:43;2.30;99.90
28767;DHT22;15921;52.034;20.650;2022-11-23T04:29:08;2.30;99.90
28767;DHT22;15921;52.034;20.650;2022-11-23T04:31:34;2.30;99.90
28767;DHT22;15921;52.034;20.650;2022-11-23T04:34:00;2.40;99.90
28767;DHT22;15921;52.034;20.650;2022-11-23T04:36:25;2.40;99.90
28767;DHT22;15921;52.034;20.650;2022-11-23T04:38:52;2.30;99.90
28767;DHT22;15921;52.034;20.650;2022-11-23T04:41:18;2.30;99.90
28767;DHT22;15921;52.034;20.650;2022-11-23T04:43:43;2.20;99.90
28767;DHT22;15921;52.034;20.650;2022-11-23T04:46:12;2.10;99.90
28767;DHT22;15921;52.034;20.650;2022-11-23T04:48:38;2.10;99.90
28767;DHT22;15921;52.034;20.650;2022-11-23T04:51:03;2.10;99.90
28767;DHT22;15921;52.034;20.650;2022-11-23T04:53:29;2.10;99.90
28767;DHT22;15921;52.034;20.650;2022-11-23T04:55:55;2.10;99.90
28767;DHT22;15921;52.034;20.650;2022-11-23T04:58:20;2.10;99.90
28767;DHT22;15921;52.034;20.650;2022-11-23T05:00:46;2.10;99.90
28767;DHT22;15921;52.034;20.650;2022-11-23T05:03:12;2.10;99.90
28767;DHT22;15921;52.034;20.650;2022-11-23T05:05:38;2.10;99.90
28767;DHT22;15921;52.034;20.650;2022-11-23T05:08:04;2.10;99.90
28767;DHT22;15921;52.034;20.650;2022-11-23T05:10:30;2.10;99.90
28767;DHT22;15921;52.034;20.650;2022-11-23T05:12:55;2.10;99.90
28767;DHT22;15921;52.034;20.650;2022-11-23T05:15:21;2.10;99.90
28767;DHT22;15921;52.034;20.650;2022-11-23T05:17:46;2.10;99.90
28767;DHT22;15921;52.034;20.650;2022-11-23T05:20:12;2.20;99.90
28767;DHT22;15921;52.034;20.650;2022-11-23T05:22:38;2.20;99.90
28767;DHT22;15921;52.034;20.650;2022-11-23T05:25:04;2.20;99.90
28767;DHT22;15921;52.034;20.650;2022-11-23T05:27:30;2.20;99.90
28767;DHT22;15921;52.034;20.650;2022-11-23T05:29:55;2.20;99.90
28767;DHT22;15921;52.034;20.650;2022-11-23T05:32:21;2.20;99.90
28767;DHT22;15921;52.034;20.650;2022-11-23T05:34:47;2.20;99.90
28767;DHT22;15921;52.034;20.650;2022-11-23T05:37:12;2.10;99.90
28767;DHT22;15921;52.034;20.650;2022-11-23T05:39:38;2.10;99.90
28767;DHT22;15921;52.034;20.650;2022-11-23T05:42:04;2.10;99.90
28767;DHT22;15921;52.034;20.650;2022-11-23T05:44:29;2.10;99.90
28767;DHT22;15921;52.034;20.650;2022-11-23T05:46:55;2.20;99.90
28767;DHT22;15921;52.034;20.650;2022-11-23T05:49:21;2.10;99.90
28767;DHT22;15921;52.034;20.650;2022-11-23T05:51:47;2.10;99.90
28767;DHT22;15921;52.034;20.650;2022-11-23T05:54:12;2.10;99.90
28767;DHT22;15921;52.034;20.650;2022-11-23T05:56:38;2.10;99.90
28767;DHT22;15921;52.034;20.650;2022-11-23T05:59:04;2.10;99.90
28767;DHT22;15921;52.034;20.650;2022-11-23T06:01:30;2.10;99.90
28767;DHT22;15921;52.034;20.650;2022-11-23T06:03:56;2.10;99.90
28767;DHT22;15921;52.034;20.650;2022-11-23T06:06:22;2.10;99.90
28767;DHT22;15921;52.034;20.650;2022-11-23T06:08:47;2.10;99.90
28767;DHT22;15921;52.034;20.650;2022-11-23T06:11:13;2.10;99.90
28767;DHT22;15921;52.034;20.650;2022-11-23T06:13:38;2.20;99.90
28767;DHT22;15921;52.034;20.650;2022-11-23T06:16:04;2.20;99.90
28767;DHT22;15921;52.034;20.650;2022-11-23T06:18:30;2.20;99.90
28767;DHT22;15921;52.034;20.650;2022-11-23T06:20:59;2.20;99.90
28767;DHT22;15921;52.034;20.650;2022-11-23T06:23:25;2.20;99.90
28767;DHT22;15921;52.034;20.650;2022-11-23T06:25:51;2.20;99.90
28767;DHT22;15921;52.034;20.650;2022-11-23T06:28:16;2.10;99.90
28767;DHT22;15921;52.034;20.650;2022-11-23T06:30:42;2.10;99.90
28767;DHT22;15921;52.034;20.650;2022-11-23T06:33:08;2.10;99.90
28767;DHT22;15921;52.034;20.650;2022-11-23T06:35:34;2.20;99.90
28767;DHT22;15921;52.034;20.650;2022-11-23T06:38:00;2.20;99.90
28767;DHT22;15921;52.034;20.650;2022-11-23T06:40:25;2.20;99.90
28767;DHT22;15921;52.034;20.650;2022-11-23T06:42:57;2.20;99.90
28767;DHT22;15921;52.034;20.650;2022-11-23T06:45:23;2.20;99.90
28767;DHT22;15921;52.034;20.650;2022-11-23T06:47:48;2.30;99.90
28767;DHT22;15921;52.034;20.650;2022-11-23T06:50:14;2.30;99.90
28767;DHT22;15921;52.034;20.650;2022-11-23T06:52:40;2.30;99.90
28767;DHT22;15921;52.034;20.650;2022-11-23T06:55:06;2.30;99.90
28767;DHT22;15921;52.034;20.650;2022-11-23T06:57:31;2.20;99.90
28767;DHT22;15921;52.034;20.650;2022-11-23T06:59:57;2.20;99.90
28767;DHT22;15921;52.034;20.650;2022-11-23T07:02:23;2.20;99.90
28767;DHT22;15921;52.034;20.650;2022-11-23T07:04:50;2.20;99.90
28767;DHT22;15921;52.034;20.650;2022-11-23T07:07:16;2.30;99.90
28767;DHT22;15921;52.034;20.650;2022-11-23T07:09:41;2.40;99.90
28767;DHT22;15921;52.034;20.650;2022-11-23T07:12:07;2.40;99.90
28767;DHT22;15921;52.034;20.650;2022-11-23T07:14:33;2.40;99.90
28767;DHT22;15921;52.034;20.650;2022-11-23T07:16:58;2.40;99.90
28767;DHT22;15921;52.034;20.650;2022-11-23T07:19:24;2.30;99.90
28767;DHT22;15921;52.034;20.650;2022-11-23T07:21:49;2.30;99.90
28767;DHT22;15921;52.034;20.650;2022-11-23T07:24:15;2.30;99.90
28767;DHT22;15921;52.034;20.650;2022-11-23T07:26:40;2.30;99.90
28767;DHT22;15921;52.034;20.650;2022-11-23T07:29:06;2.30;99.90
28767;DHT22;15921;52.034;20.650;2022-11-23T07:31:32;2.40;99.90
28767;DHT22;15921;52.034;20.650;2022-11-23T07:33:57;2.40;99.90
28767;DHT22;15921;52.034;20.650;2022-11-23T07:36:23;2.40;99.90
28767;DHT22;15921;52.034;20.650;2022-11-23T07:38:49;2.40;99.90
28767;DHT22;15921;52.034;20.650;2022-11-23T07:41:14;2.40;99.90
28767;DHT22;15921;52.034;20.650;2022-11-23T07:43:40;2.40;99.90
28767;DHT22;15921;52.034;20.650;2022-11-23T07:46:06;2.40;99.90
28767;DHT22;15921;52.034;20.650;2022-11-23T07:48:31;2.50;99.90
28767;DHT22;15921;52.034;20.650;2022-11-23T07:50:57;2.50;99.90
28767;DHT22;15921;52.034;20.650;2022-11-23T07:53:23;2.60;99.90
28767;DHT22;15921;52.034;20.650;2022-11-23T07:55:48;2.60;99.90
28767;DHT22;15921;52.034;20.650;2022-11-23T07:58:14;2.60;99.90
28767;DHT22;15921;52.034;20.650;2022-11-23T08:00:40;2.60;99.90
28767;DHT22;15921;52.034;20.650;2022-11-23T08:03:06;2.50;99.90
28767;DHT22;15921;52.034;20.650;2022-11-23T08:05:32;2.50;99.90
28767;DHT22;15921;52.034;20.650;2022-11-23T08:08:00;2.50;99.90
28767;DHT22;15921;52.034;20.650;2022-11-23T08:10:30;2.60;99.90
28767;DHT22;15921;52.034;20.650;2022-11-23T08:13:00;2.50;99.90
28767;DHT22;15921;52.034;20.650;2022-11-23T08:15:27;2.50;99.90
28767;DHT22;15921;52.034;20.650;2022-11-23T08:17:57;2.60;99.90
28767;DHT22;15921;52.034;20.650;2022-11-23T08:20:24;2.60;99.90
28767;DHT22;15921;52.034;20.650;2022-11-23T08:22:50;2.50;99.90
28767;DHT22;15921;52.034;20.650;2022-11-23T08:25:15;2.50;99.90
28767;DHT22;15921;52.034;20.650;2022-11-23T08:27:41;2.60;99.90
28767;DHT22;15921;52.034;20.650;2022-11-23T08:30:07;2.60;99.90
28767;DHT22;15921;52.034;20.650;2022-11-23T08:32:33;2.60;99.90
28767;DHT22;15921;52.034;20.650;2022-11-23T08:34:59;2.60;99.90
28767;DHT22;15921;52.034;20.650;2022-11-23T08:37:25;2.60;99.90
28767;DHT22;15921;52.034;20.650;2022-11-23T08:39:51;2.60;99.90
28767;DHT22;15921;52.034;20.650;2022-11-23T08:42:16;2.60;99.90
28767;DHT22;15921;52.034;20.650;2022-11-23T08:44:42;2.60;99.90
28767;DHT22;15921;52.034;20.650;2022-11-23T08:47:08;2.60;99.90
28767;DHT22;15921;52.034;20.650;2022-11-23T08:49:33;2.70;99.90
28767;DHT22;15921;52.034;20.650;2022-11-23T08:51:59;2.70;99.90
28767;DHT22;15921;52.034;20.650;2022-11-23T08:54:25;2.80;99.90
28767;DHT22;15921;52.034;20.650;2022-11-23T08:56:51;2.80;99.90
28767;DHT22;15921;52.034;20.650;2022-11-23T08:59:17;2.80;99.90
28767;DHT22;15921;52.034;20.650;2022-11-23T09:01:44;2.90;99.90
28767;DHT22;15921;52.034;20.650;2022-11-23T09:04:09;2.90;99.90
28767;DHT22;15921;52.034;20.650;2022-11-23T09:06:35;2.90;99.90
28767;DHT22;15921;52.034;20.650;2022-11-23T09:09:02;2.90;99.90
28767;DHT22;15921;52.034;20.650;2022-11-23T09:11:27;3.00;99.90
28767;DHT22;15921;52.034;20.650;2022-11-23T09:13:53;3.00;99.90
28767;DHT22;15921;52.034;20.650;2022-11-23T09:16:19;3.00;99.90
28767;DHT22;15921;52.034;20.650;2022-11-23T09:18:45;3.10;99.90
28767;DHT22;15921;52.034;20.650;2022-11-23T09:21:11;3.00;99.90
28767;DHT22;15921;52.034;20.650;2022-11-23T09:23:37;3.10;99.90
28767;DHT22;15921;52.034;20.650;2022-11-23T09:26:03;3.10;99.90
28767;DHT22;15921;52.034;20.650;2022-11-23T09:28:30;3.10;99.90
28767;DHT22;15921;52.034;20.650;2022-11-23T09:30:56;3.20;99.90
28767;DHT22;15921;52.034;20.650;2022-11-23T09:33:23;3.20;99.90
28767;DHT22;15921;52.034;20.650;2022-11-23T09:35:57;3.20;99.90
28767;DHT22;15921;52.034;20.650;2022-11-23T09:38:23;3.20;99.90
28767;DHT22;15921;52.034;20.650;2022-11-23T09:41:01;3.30;99.90
28767;DHT22;15921;52.034;20.650;2022-11-23T09:46:41;3.30;99.90
28767;DHT22;15921;52.034;20.650;2022-11-23T09:51:37;3.30;99.90
28767;DHT22;15921;52.034;20.650;2022-11-23T09:54:34;3.40;99.90
28767;DHT22;15921;52.034;20.650;2022-11-23T09:57:02;3.40;99.90
28767;DHT22;15921;52.034;20.650;2022-11-23T10:01:59;3.40;99.90
28767;DHT22;15921;52.034;20.650;2022-11-23T10:04:34;3.30;99.90
28767;DHT22;15921;52.034;20.650;2022-11-23T10:07:24;3.30;99.90
28767;DHT22;15921;52.034;20.650;2022-11-23T10:13:33;3.10;99.90
28767;DHT22;15921;52.034;20.650;2022-11-23T10:16:08;3.10;99.90
28767;DHT22;15921;52.034;20.650;2022-11-23T10:21:43;3.20;99.90
28767;DHT22;15921;52.034;20.650;2022-11-23T10:24:20;3.30;99.90
28767;DHT22;15921;52.034;20.650;2022-11-23T10:26:49;3.30;99.90
28767;DHT22;15921;52.034;20.650;2022-11-23T10:29:57;3.30;99.90
28767;DHT22;15921;52.034;20.650;2022-11-23T10:32:11;3.20;99.90
28767;DHT22;15921;52.034;20.650;2022-11-23T10:37:17;3.20;99.90
28767;DHT22;15921;52.034;20.650;2022-11-23T10:39:43;3.30;99.90
28767;DHT22;15921;52.034;20.650;2022-11-23T10:42:23;3.40;99.90
28767;DHT22;15921;52.034;20.650;2022-11-23T10:44:51;3.40;99.90
28767;DHT22;15921;52.034;20.650;2022-11-23T10:52:59;3.40;99.90
28767;DHT22;15921;52.034;20.650;2022-11-23T10:55:27;3.40;99.90
28767;DHT22;15921;52.034;20.650;2022-11-23T10:57:54;3.50;99.90
28767;DHT22;15921;52.034;20.650;2022-11-23T11:00:22;3.50;99.90
28767;DHT22;15921;52.034;20.650;2022-11-23T11:02:51;3.40;99.90
28767;DHT22;15921;52.034;20.650;2022-11-23T11:05:36;3.40;99.90
28767;DHT22;15921;52.034;20.650;2022-11-23T11:08:17;3.50;99.90
28767;DHT22;15921;52.034;20.650;2022-11-23T11:11:07;3.50;99.90
28767;DHT22;15921;52.034;20.650;2022-11-23T11:13:44;3.60;99.90
28767;DHT22;15921;52.034;20.650;2022-11-23T11:18:59;3.50;99.90
28767;DHT22;15921;52.034;20.650;2022-11-23T11:21:34;3.50;99.90
28767;DHT22;15921;52.034;20.650;2022-11-23T11:24:03;3.50;99.90
28767;DHT22;15921;52.034;20.650;2022-11-23T11:26:31;3.60;99.90
28767;DHT22;15921;52.034;20.650;2022-11-23T11:29:02;3.60;99.90
28767;DHT22;15921;52.034;20.650;2022-11-23T11:34:29;3.60;99.90
28767;DHT22;15921;52.034;20.650;2022-11-23T11:39:48;3.70;99.90
28767;DHT22;15921;52.034;20.650;2022-11-23T11:42:34;3.70;99.90
28767;DHT22;15921;52.034;20.650;2022-11-23T11:45:04;3.70;99.90
28767;DHT22;15921;52.034;20.650;2022-11-23T11:47:45;3.70;99.90
28767;DHT22;15921;52.034;20.650;2022-11-23T11:50:35;3.70;99.90
28767;DHT22;15921;52.034;20.650;2022-11-23T11:53:06;3.80;99.90
28767;DHT22;15921;52.034;20.650;2022-11-23T11:58:21;3.70;99.90
28767;DHT22;15921;52.034;20.650;2022-11-23T12:00:49;3.70;99.90
28767;DHT22;15921;52.034;20.650;2022-11-23T12:06:10;3.60;99.90
28767;DHT22;15921;52.034;20.650;2022-11-23T12:08:50;3.50;99.90
28767;DHT22;15921;52.034;20.650;2022-11-23T12:11:19;3.50;99.90
28767;DHT22;15921;52.034;20.650;2022-11-23T12:13:45;3.60;99.90
28767;DHT22;15921;52.034;20.650;2022-11-23T12:24:58;3.50;99.90
28767;DHT22;15921;52.034;20.650;2022-11-23T12:41:22;3.40;99.90
28767;DHT22;15921;52.034;20.650;2022-11-23T12:54:57;3.40;99.90
28767;DHT22;15921;52.034;20.650;2022-11-23T12:59:57;3.30;99.90
28767;DHT22;15921;52.034;20.650;2022-11-23T13:02:46;3.40;99.90
28767;DHT22;15921;52.034;20.650;2022-11-23T13:13:33;3.10;99.90
28767;DHT22;15921;52.034;20.650;2022-11-23T13:16:20;3.10;99.90
28767;DHT22;15921;52.034;20.650;2022-11-23T13:21:36;3.00;99.90
28767;DHT22;15921;52.034;20.650;2022-11-23T13:24:03;3.00;99.90
28767;DHT22;15921;52.034;20.650;2022-11-23T13:26:29;2.90;99.90
28767;DHT22;15921;52.034;20.650;2022-11-23T13:28:58;2.90;99.90
28767;DHT22;15921;52.034;20.650;2022-11-23T13:31:30;3.00;99.90
28767;DHT22;15921;52.034;20.650;2022-11-23T13:34:44;3.00;99.90
28767;DHT22;15921;52.034;20.650;2022-11-23T13:37:08;3.00;99.90
28767;DHT22;15921;52.034;20.650;2022-11-23T13:42:10;2.90;99.90
28767;DHT22;15921;52.034;20.650;2022-11-23T13:44:36;2.90;99.90
28767;DHT22;15921;52.034;20.650;2022-11-23T13:50:06;2.70;99.90
28767;DHT22;15921;52.034;20.650;2022-11-23T13:52:33;2.70;99.90
28767;DHT22;15921;52.034;20.650;2022-11-23T13:57:36;2.50;99.90
28767;DHT22;15921;52.034;20.650;2022-11-23T14:09:03;2.40;99.90
28767;DHT22;15921;52.034;20.650;2022-11-23T14:11:35;2.40;99.90
28767;DHT22;15921;52.034;20.650;2022-11-23T14:14:05;2.40;99.90
28767;DHT22;15921;52.034;20.650;2022-11-23T14:17:09;2.40;99.90
28767;DHT22;15921;52.034;20.650;2022-11-23T14:22:31;2.30;99.90
28767;DHT22;15921;52.034;20.650;2022-11-23T14:28:06;2.40;99.90
28767;DHT22;15921;52.034;20.650;2022-11-23T14:31:14;2.40;99.90
28767;DHT22;15921;52.034;20.650;2022-11-23T14:34:06;2.40;99.90
28767;DHT22;15921;52.034;20.650;2022-11-23T14:37:04;2.30;99.90
28767;DHT22;15921;52.034;20.650;2022-11-23T14:42:27;2.20;99.90
28767;DHT22;15921;52.034;20.650;2022-11-23T14:44:55;2.20;99.90
28767;DHT22;15921;52.034;20.650;2022-11-23T14:47:27;2.20;99.90
28767;DHT22;15921;52.034;20.650;2022-11-23T14:49:53;2.10;99.90
28767;DHT22;15921;52.034;20.650;2022-11-23T14:52:25;2.20;99.90
28767;DHT22;15921;52.034;20.650;2022-11-23T14:54:54;2.20;99.90
28767;DHT22;15921;52.034;20.650;2022-11-23T14:57:22;2.20;99.90
28767;DHT22;15921;52.034;20.650;2022-11-23T14:59:53;2.20;99.90
28767;DHT22;15921;52.034;20.650;2022-11-23T15:02:34;2.20;99.90
28767;DHT22;15921;52.034;20.650;2022-11-23T15:08:15;2.10;99.90
28767;DHT22;15921;52.034;20.650;2022-11-23T15:10:51;2.10;99.90
28767;DHT22;15921;52.034;20.650;2022-11-23T15:13:27;2.10;99.90
28767;DHT22;15921;52.034;20.650;2022-11-23T15:15:55;2.00;99.90
28767;DHT22;15921;52.034;20.650;2022-11-23T15:18:33;2.10;99.90
28767;DHT22;15921;52.034;20.650;2022-11-23T15:23:41;2.10;99.90
28767;DHT22;15921;52.034;20.650;2022-11-23T15:26:20;2.10;99.90
28767;DHT22;15921;52.034;20.650;2022-11-23T15:28:46;2.10;99.90
28767;DHT22;15921;52.034;20.650;2022-11-23T15:33:59;2.10;99.90
28767;DHT22;15921;52.034;20.650;2022-11-23T15:36:29;2.00;99.90
28767;DHT22;15921;52.034;20.650;2022-11-23T15:38:57;1.90;99.90
28767;DHT22;15921;52.034;20.650;2022-11-23T15:41:26;2.00;99.90
28767;DHT22;15921;52.034;20.650;2022-11-23T15:43:59;2.00;99.90
28767;DHT22;15921;52.034;20.650;2022-11-23T15:46:27;2.00;99.90
28767;DHT22;15921;52.034;20.650;2022-11-23T15:48:55;1.90;99.90
28767;DHT22;15921;52.034;20.650;2022-11-23T15:53:50;1.90;99.90
28767;DHT22;15921;52.034;20.650;2022-11-23T15:56:32;1.80;99.90
28767;DHT22;15921;52.034;20.650;2022-11-23T15:59:04;1.80;99.90
28767;DHT22;15921;52.034;20.650;2022-11-23T16:01:39;1.80;99.90
28767;DHT22;15921;52.034;20.650;2022-11-23T16:04:25;1.80;99.90
28767;DHT22;15921;52.034;20.650;2022-11-23T16:06:51;1.80;99.90
28767;DHT22;15921;52.034;20.650;2022-11-23T16:09:36;1.80;99.90
28767;DHT22;15921;52.034;20.650;2022-11-23T16:12:18;1.80;99.90
28767;DHT22;15921;52.034;20.650;2022-11-23T16:14:45;1.70;99.90
28767;DHT22;15921;52.034;20.650;2022-11-23T16:17:20;1.70;99.90
28767;DHT22;15921;52.034;20.650;2022-11-23T16:19:50;1.80;99.90
28767;DHT22;15921;52.034;20.650;2022-11-23T16:22:32;1.80;99.90
28767;DHT22;15921;52.034;20.650;2022-11-23T16:25:33;1.80;99.90
28767;DHT22;15921;52.034;20.650;2022-11-23T16:28:16;1.80;99.90
28767;DHT22;15921;52.034;20.650;2022-11-23T16:30:44;1.80;99.90
28767;DHT22;15921;52.034;20.650;2022-11-23T16:33:15;1.80;99.90
28767;DHT22;15921;52.034;20.650;2022-11-23T16:35:41;1.80;99.90
28767;DHT22;15921;52.034;20.650;2022-11-23T16:38:07;1.90;99.90
28767;DHT22;15921;52.034;20.650;2022-11-23T16:40:34;1.90;99.90
28767;DHT22;15921;52.034;20.650;2022-11-23T16:43:00;1.80;99.90
28767;DHT22;15921;52.034;20.650;2022-11-23T16:45:28;1.80;99.90
28767;DHT22;15921;52.034;20.650;2022-11-23T16:48:00;1.70;99.90
28767;DHT22;15921;52.034;20.650;2022-11-23T16:50:33;1.70;99.90
28767;DHT22;15921;52.034;20.650;2022-11-23T16:53:12;1.70;99.90
28767;DHT22;15921;52.034;20.650;2022-11-23T16:55:38;1.60;99.90
28767;DHT22;15921;52.034;20.650;2022-11-23T16:58:05;1.50;99.90
28767;DHT22;15921;52.034;20.650;2022-11-23T17:00:31;1.60;99.90
28767;DHT22;15921;52.034;20.650;2022-11-23T17:02:58;1.50;99.90
28767;DHT22;15921;52.034;20.650;2022-11-23T17:05:24;1.50;99.90
28767;DHT22;15921;52.034;20.650;2022-11-23T17:07:49;1.40;99.90
28767;DHT22;15921;52.034;20.650;2022-11-23T17:10:16;1.40;99.90
28767;DHT22;15921;52.034;20.650;2022-11-23T17:12:52;1.40;99.90
28767;DHT22;15921;52.034;20.650;2022-11-23T17:15:21;1.40;99.90
28767;DHT22;15921;52.034;20.650;2022-11-23T17:17:47;1.40;99.90
28767;DHT22;15921;52.034;20.650;2022-11-23T17:20:15;1.40;99.90
28767;DHT22;15921;52.034;20.650;2022-11-23T17:22:40;1.40;99.90
28767;DHT22;15921;52.034;20.650;2022-11-23T17:25:08;1.40;99.90
28767;DHT22;15921;52.034;20.650;2022-11-23T17:27:36;1.30;99.90
28767;DHT22;15921;52.034;20.650;2022-11-23T17:30:16;1.30;99.90
28767;DHT22;15921;52.034;20.650;2022-11-23T17:32:42;1.30;99.90
28767;DHT22;15921;52.034;20.650;2022-11-23T17:35:08;1.40;99.90
28767;DHT22;15921;52.034;20.650;2022-11-23T17:37:34;1.30;99.90
28767;DHT22;15921;52.034;20.650;2022-11-23T17:40:00;1.40;99.90
28767;DHT22;15921;52.034;20.650;2022-11-23T17:42:26;1.40;99.90
28767;DHT22;15921;52.034;20.650;2022-11-23T17:44:52;1.30;99.90
28767;DHT22;15921;52.034;20.650;2022-11-23T17:47:25;1.30;99.90